createdAt,value
2022-12-18T00:01:10.021Z,-3.5
2022-12-18T00:02:23.549Z,-3.5
2022-12-18T00:03:31.919Z,-3.5
2022-12-18T00:04:40.980Z,-3.5
2022-12-18T03:03:13.835Z,-3.5
2022-12-18T03:04:22.390Z,-3.4
2022-12-18T03:05:41.647Z,-3.4
2022-12-18T03:06:59.098Z,-3.4
2022-12-18T03:47:17.379Z,-3.5
2022-12-18T03:48:21.000Z,-3.5
2022-12-18T03:49:30.874Z,-3.5
2022-12-18T03:50:42.317Z,-3.5
2022-12-18T03:51:51.518Z,-3.5
2022-12-18T03:57:13.939Z,-3.5
2022-12-18T03:58:22.979Z,-3.5
2022-12-18T03:59:32.233Z,-3.5
2022-12-18T04:00:40.110Z,-3.6
2022-12-18T04:01:52.059Z,-3.5
2022-12-18T05:08:21.043Z,-3.4
2022-12-18T05:09:30.026Z,-3.3
2022-12-18T05:10:42.558Z,-3.3
2022-12-18T05:11:51.046Z,-3.3
2022-12-18T05:54:39.759Z,-3.3
2022-12-18T05:55:47.823Z,-3.5
2022-12-18T05:56:57.466Z,-3.5
2022-12-18T05:58:06.514Z,-3.5
2022-12-18T05:59:16.661Z,-3.5
2022-12-18T06:00:45.773Z,-3.5
2022-12-18T06:01:55.860Z,-3.5
2022-12-18T06:03:07.240Z,-3.5
2022-12-18T06:04:16.354Z,-3.5
2022-12-18T06:05:26.941Z,-3.5
2022-12-18T06:44:05.738Z,-3.5
2022-12-18T06:45:14.063Z,-3.5
2022-12-18T06:46:26.025Z,-3.4
2022-12-18T06:47:34.605Z,-3.4
2022-12-18T06:48:44.637Z,-3.4
2022-12-18T07:23:42.000Z,-3.4
2022-12-18T07:24:50.158Z,-3.4
2022-12-18T07:25:59.730Z,-3.4
2022-12-18T07:27:12.201Z,-3.3
2022-12-18T07:28:22.998Z,-3.3
2022-12-18T08:07:53.560Z,-3.3
2022-12-18T08:09:02.102Z,-3.2
2022-12-18T08:10:13.410Z,-3.3
2022-12-18T08:11:24.875Z,-3.4
2022-12-18T08:12:33.357Z,-3.4
2022-12-18T08:17:16.660Z,-3.4
2022-12-18T08:18:32.700Z,-3.4
2022-12-18T08:19:39.953Z,-3.3
2022-12-18T08:20:47.177Z,-3.3
2022-12-18T08:21:57.532Z,-3.2
2022-12-18T08:23:05.744Z,-3.1
2022-12-18T08:24:13.276Z,-3.1
2022-12-18T08:25:20.724Z,-3.1
2022-12-18T08:26:28.356Z,-3
2022-12-18T08:27:35.853Z,-3.1
2022-12-18T08:28:45.436Z,-3.1
2022-12-18T08:29:52.994Z,-3.1
2022-12-18T08:31:01.262Z,-3
2022-12-18T08:32:08.948Z,-3
2022-12-18T08:33:17.260Z,-3
2022-12-18T08:34:25.568Z,-3.1
2022-12-18T08:35:37.076Z,-3.1
2022-12-18T08:36:43.224Z,-3.1
2022-12-18T08:37:51.768Z,-3.2
2022-12-18T08:39:00.319Z,-3.3
2022-12-18T08:40:07.940Z,-3.2
2022-12-18T08:41:15.469Z,-3.2
2022-12-18T08:42:22.549Z,-3.2
2022-12-18T08:43:35.723Z,-3.1
2022-12-18T08:44:47.730Z,-3.1
2022-12-18T08:45:57.256Z,-3
2022-12-18T08:47:04.822Z,-3
2022-12-18T08:48:12.240Z,-3.1
2022-12-18T08:49:19.881Z,-3.2
2022-12-18T08:50:29.691Z,-3.2
2022-12-18T08:51:36.758Z,-3.1
2022-12-18T08:52:44.272Z,-3
2022-12-18T08:53:52.789Z,-3
2022-12-18T08:55:01.709Z,-2.9
2022-12-18T08:56:11.325Z,-2.9
2022-12-18T08:57:19.603Z,-2.9
2022-12-18T08:58:27.103Z,-2.9
2022-12-18T08:59:34.447Z,-2.9
2022-12-18T09:00:41.981Z,-2.9
2022-12-18T09:01:50.770Z,-3
2022-12-18T09:02:59.347Z,-3.1
2022-12-18T09:04:06.884Z,-3
2022-12-18T09:05:15.150Z,-3
2022-12-18T09:06:22.740Z,-3
2022-12-18T09:07:30.124Z,-3
2022-12-18T09:08:40.195Z,-3.1
2022-12-18T09:09:48.852Z,-3
2022-12-18T09:10:56.655Z,-3
2022-12-18T09:12:03.996Z,-3
2022-12-18T09:13:13.290Z,-3
2022-12-18T09:14:20.877Z,-2.9
2022-12-18T09:15:28.347Z,-2.9
2022-12-18T09:16:35.739Z,-2.9
2022-12-18T09:17:42.952Z,-3
2022-12-18T09:18:50.244Z,-3
2022-12-18T09:19:58.880Z,-3
2022-12-18T09:21:06.664Z,-2.9
2022-12-18T09:22:17.948Z,-2.9
2022-12-18T09:23:25.284Z,-2.8
2022-12-18T09:24:32.897Z,-2.7
2022-12-18T09:25:41.461Z,-2.7
2022-12-18T09:26:49.368Z,-2.6
2022-12-18T09:27:58.840Z,-2.7
2022-12-18T09:29:10.413Z,-2.6
2022-12-18T09:30:17.711Z,-2.6
2022-12-18T09:31:25.412Z,-2.8
2022-12-18T09:32:32.893Z,-2.8
2022-12-18T09:33:41.075Z,-2.8
2022-12-18T09:34:48.243Z,-2.7
2022-12-18T09:35:55.735Z,-2.8
2022-12-18T09:37:03.887Z,-2.9
2022-12-18T09:38:11.136Z,-3
2022-12-18T09:39:19.597Z,-2.9
2022-12-18T09:40:26.411Z,-2.9
2022-12-18T09:41:34.187Z,-2.8
2022-12-18T09:42:49.623Z,-2.8
2022-12-18T09:43:57.583Z,-2.8
2022-12-18T09:45:08.237Z,-2.9
2022-12-18T09:46:15.539Z,-2.9
2022-12-18T09:47:28.307Z,-2.9
2022-12-18T09:48:37.905Z,-2.9
2022-12-18T09:49:48.183Z,-3
2022-12-18T09:50:55.812Z,-2.9
2022-12-18T09:52:05.499Z,-2.8
2022-12-18T09:53:13.220Z,-2.9
2022-12-18T09:54:23.187Z,-2.9
2022-12-18T09:55:36.766Z,-2.8
2022-12-18T09:56:50.139Z,-2.8
2022-12-18T09:57:58.986Z,-2.9
2022-12-18T09:59:07.455Z,-2.9
2022-12-18T10:00:14.968Z,-2.9
2022-12-18T10:01:24.154Z,-3
2022-12-18T10:02:31.424Z,-3
2022-12-18T10:03:38.715Z,-2.9
2022-12-18T10:04:45.853Z,-2.8
2022-12-18T10:05:56.963Z,-2.8
2022-12-18T10:07:12.251Z,-2.7
2022-12-18T10:08:19.439Z,-2.5
2022-12-18T10:09:32.639Z,-2.5
2022-12-18T10:10:48.625Z,-2.4
2022-12-18T10:11:58.763Z,-2.4
2022-12-18T10:13:11.733Z,-2.3
2022-12-18T10:14:23.983Z,-2.4
2022-12-18T10:15:36.740Z,-2.3
2022-12-18T10:16:54.827Z,-2.2
2022-12-18T10:18:09.991Z,-2.2
2022-12-18T10:19:20.440Z,-2.2
2022-12-18T10:20:33.863Z,-2.2
2022-12-18T10:21:44.164Z,-2.2
2022-12-18T10:22:59.394Z,-2.1
2022-12-18T10:24:18.287Z,-2.1
2022-12-18T10:25:27.884Z,-2
2022-12-18T10:26:43.091Z,-2.1
2022-12-18T10:27:50.438Z,-1.9
2022-12-18T10:29:02.126Z,-1.9
2022-12-18T10:30:05.043Z,-2
2022-12-18T10:31:17.655Z,-1.9
2022-12-18T10:32:24.819Z,-1.9
2022-12-18T10:33:33.062Z,-1.9
2022-12-18T10:34:42.764Z,-1.8
2022-12-18T10:35:52.907Z,-1.8
2022-12-18T10:37:00.219Z,-1.8
2022-12-18T10:38:19.926Z,-1.8
2022-12-18T10:39:27.406Z,-1.8
2022-12-18T10:40:36.283Z,-1.9
2022-12-18T10:41:56.327Z,-1.9
2022-12-18T10:43:13.027Z,-2
2022-12-18T10:44:37.860Z,-2
2022-12-18T10:45:45.163Z,-2
2022-12-18T10:47:08.729Z,-1.9
2022-12-18T10:48:14.091Z,-2
2022-12-18T10:49:24.621Z,-2
2022-12-18T10:51:01.624Z,-1.9
2022-12-18T10:51:42.133Z,-1.8
2022-12-18T10:52:49.397Z,-1.9
2022-12-18T10:54:06.328Z,-1.8
2022-12-18T10:55:20.378Z,-1.9
2022-12-18T10:56:28.314Z,-1.8
2022-12-18T10:57:37.750Z,-1.9
2022-12-18T10:58:46.800Z,-1.8
2022-12-18T11:00:04.264Z,-1.9
2022-12-18T11:01:22.210Z,-1.9
2022-12-18T11:02:29.845Z,-1.9
2022-12-18T11:03:39.479Z,-1.9
2022-12-18T11:04:49.115Z,-1.9
2022-12-18T11:05:57.089Z,-1.9
2022-12-18T11:07:10.411Z,-1.9
2022-12-18T11:08:17.692Z,-1.9
2022-12-18T11:09:25.063Z,-1.9
2022-12-18T11:10:32.355Z,-1.9
2022-12-18T11:11:42.346Z,-1.9
2022-12-18T11:12:55.598Z,-2
2022-12-18T11:14:13.878Z,-1.9
2022-12-18T11:15:21.514Z,-1.9
2022-12-18T11:16:28.494Z,-2
2022-12-18T11:17:40.502Z,-2.2
2022-12-18T11:18:48.880Z,-2.2
2022-12-18T11:19:56.802Z,-2.1
2022-12-18T11:21:04.083Z,-2
2022-12-18T11:22:14.559Z,-2
2022-12-18T11:23:27.675Z,-1.9
2022-12-18T11:24:35.987Z,-2
2022-12-18T11:25:44.895Z,-2
2022-12-18T11:26:59.880Z,-2
2022-12-18T11:28:09.571Z,-1.9
2022-12-18T11:29:27.357Z,-1.9
2022-12-18T11:30:35.590Z,-2
2022-12-18T11:31:43.318Z,-2
2022-12-18T11:32:50.910Z,-2.1
2022-12-18T11:35:21.479Z,-2.3
2022-12-18T11:36:34.746Z,-2.3
2022-12-18T11:37:44.447Z,-2.2
2022-12-18T11:38:54.374Z,-2.2
2022-12-18T11:40:03.046Z,-2.1
2022-12-18T11:41:15.582Z,-1.9
2022-12-18T11:42:28.279Z,-1.8
2022-12-18T11:43:38.654Z,-1.9
2022-12-18T11:44:45.512Z,-1.9
2022-12-18T11:45:52.955Z,-1.9
2022-12-18T11:47:05.847Z,-1.8
2022-12-18T11:48:23.612Z,-2
2022-12-18T11:49:36.342Z,-2
2022-12-18T11:50:43.450Z,-2.1
2022-12-18T11:51:53.718Z,-2
2022-12-18T11:53:05.772Z,-2
2022-12-18T11:54:08.618Z,-2
2022-12-18T11:55:20.494Z,-1.9
2022-12-18T11:56:33.098Z,-1.9
2022-12-18T11:57:41.435Z,-1.9
2022-12-18T11:58:54.110Z,-1.9
2022-12-18T12:00:06.354Z,-1.8
2022-12-18T12:01:16.754Z,-1.9
2022-12-18T12:02:33.954Z,-1.8
2022-12-18T12:03:51.884Z,-1.9
2022-12-18T12:05:04.876Z,-1.9
2022-12-18T12:06:22.262Z,-1.9
2022-12-18T12:07:32.002Z,-1.9
2022-12-18T12:08:43.675Z,-2
2022-12-18T12:10:04.475Z,-2.1
2022-12-18T12:11:18.144Z,-2
2022-12-18T12:12:33.289Z,-2
2022-12-18T12:13:51.621Z,-1.9
2022-12-18T12:15:07.559Z,-1.9
2022-12-18T12:16:14.719Z,-1.9
2022-12-18T12:17:28.316Z,-1.8
2022-12-18T12:18:41.222Z,-1.9
2022-12-18T12:19:53.736Z,-2
2022-12-18T12:21:07.010Z,-2
2022-12-18T12:22:19.130Z,-1.9
2022-12-18T12:23:36.487Z,-2
2022-12-18T12:24:48.663Z,-1.9
2022-12-18T12:26:07.282Z,-1.9
2022-12-18T12:27:14.709Z,-2
2022-12-18T12:28:30.055Z,-2.1
2022-12-18T12:29:41.038Z,-2.1
2022-12-18T12:30:54.134Z,-2.1
2022-12-18T12:32:06.600Z,-2.1
2022-12-18T12:33:17.578Z,-2.1
2022-12-18T12:34:31.110Z,-2.1
2022-12-18T12:35:47.594Z,-2.1
2022-12-18T12:36:58.018Z,-2.1
2022-12-18T12:38:13.442Z,-2.2
2022-12-18T12:39:20.794Z,-2.2
2022-12-18T12:41:37.160Z,-2.1
2022-12-18T12:42:51.016Z,-2.1
2022-12-18T12:44:04.304Z,-2.1
2022-12-18T12:45:11.597Z,-2.1
2022-12-18T12:46:24.791Z,-2.1
2022-12-18T12:47:32.789Z,-2.1
2022-12-18T12:48:44.454Z,-2.1
2022-12-18T12:49:51.577Z,-2.1
2022-12-18T12:51:00.508Z,-2.1
2022-12-18T12:52:23.107Z,-2.1
2022-12-18T12:53:37.974Z,-2.1
2022-12-18T12:54:45.759Z,-2.1
2022-12-18T12:55:52.294Z,-2.1
2022-12-18T12:56:59.546Z,-2.1
2022-12-18T12:58:18.706Z,-2.2
2022-12-18T12:59:31.234Z,-2.2
2022-12-18T13:00:46.234Z,-2.2
2022-12-18T13:02:01.583Z,-2.1
2022-12-18T13:03:21.614Z,-2.2
2022-12-18T13:04:31.657Z,-2.3
2022-12-18T13:05:42.605Z,-2.3
2022-12-18T13:06:54.894Z,-2.2
2022-12-18T13:08:14.086Z,-2.2
2022-12-18T13:09:26.722Z,-2.2
2022-12-18T13:10:34.860Z,-2.2
2022-12-18T13:11:44.794Z,-2.3
2022-12-18T13:12:57.242Z,-2.3
2022-12-18T13:14:04.245Z,-2.3
2022-12-18T13:15:12.259Z,-2.2
2022-12-18T13:16:22.494Z,-2.3
2022-12-18T13:17:30.774Z,-2.3
2022-12-18T13:18:39.160Z,-2.3
2022-12-18T13:19:46.020Z,-2.3
2022-12-18T13:20:59.835Z,-2.3
2022-12-18T13:22:03.644Z,-2.3
2022-12-18T13:23:11.035Z,-2.4
2022-12-18T13:24:23.858Z,-2.4
2022-12-18T13:25:31.830Z,-2.5
2022-12-18T13:26:38.782Z,-2.5
2022-12-18T13:27:46.432Z,-2.4
2022-12-18T13:28:58.705Z,-2.5
2022-12-18T13:30:07.018Z,-2.5
2022-12-18T13:31:24.529Z,-2.5
2022-12-18T13:32:43.078Z,-2.6
2022-12-18T13:34:24.254Z,-2.5
2022-12-18T13:34:58.191Z,-2.5
2022-12-18T13:36:16.570Z,-2.6
2022-12-18T13:37:26.324Z,-2.7
2022-12-18T13:38:36.615Z,-2.7
2022-12-18T13:39:44.920Z,-2.8
2022-12-18T13:40:52.958Z,-2.8
2022-12-18T13:41:59.914Z,-2.9
2022-12-18T13:43:10.138Z,-2.9
2022-12-18T13:44:25.363Z,-2.8
2022-12-18T13:45:43.213Z,-2.9
2022-12-18T13:46:51.047Z,-2.8
2022-12-18T13:47:59.132Z,-2.8
2022-12-18T13:49:09.702Z,-2.8
2022-12-18T13:50:16.877Z,-2.8
2022-12-18T13:51:27.070Z,-2.8
2022-12-18T13:52:34.851Z,-2.8
2022-12-18T13:53:43.213Z,-2.7
2022-12-18T13:54:56.595Z,-2.8
2022-12-18T13:56:05.418Z,-2.8
2022-12-18T13:57:13.703Z,-2.8
2022-12-18T13:58:30.767Z,-2.7
2022-12-18T13:59:38.158Z,-2.8
2022-12-18T14:00:45.463Z,-2.8
2022-12-18T14:01:52.574Z,-2.8
2022-12-18T14:03:00.598Z,-2.8
2022-12-18T14:04:07.663Z,-2.8
2022-12-18T14:05:14.990Z,-2.8
2022-12-18T14:06:25.392Z,-2.8
2022-12-18T14:07:34.540Z,-2.8
2022-12-18T14:08:43.675Z,-2.9
2022-12-18T14:10:01.848Z,-3
2022-12-18T14:11:03.159Z,-3
2022-12-18T14:12:10.398Z,-3
2022-12-18T14:13:33.192Z,-3
2022-12-18T14:14:41.165Z,-3.1
2022-12-18T14:15:48.531Z,-3.1
2022-12-18T14:16:57.194Z,-3.1
2022-12-18T14:18:05.059Z,-3.2
2022-12-18T14:19:17.707Z,-3.2
2022-12-18T14:20:27.758Z,-3.2
2022-12-18T14:21:35.251Z,-3.2
2022-12-18T14:22:44.363Z,-3.2
2022-12-18T14:23:51.482Z,-3.3
2022-12-18T14:25:10.264Z,-3.3
2022-12-18T14:26:43.406Z,-3.3
2022-12-18T14:27:50.525Z,-3.4
2022-12-18T14:29:03.017Z,-3.5
2022-12-18T14:30:19.642Z,-3.5
2022-12-18T14:31:32.290Z,-3.5
2022-12-18T14:32:53.036Z,-3.6
2022-12-18T14:34:08.558Z,-3.6
2022-12-18T14:35:21.978Z,-3.7
2022-12-18T14:36:30.178Z,-3.7
2022-12-18T14:37:38.149Z,-3.7
2022-12-18T14:41:44.265Z,-3.9
2022-12-18T14:42:52.894Z,-3.9
2022-12-18T14:44:00.579Z,-4
2022-12-18T14:45:16.162Z,-4.1
2022-12-18T14:48:59.206Z,-4.1
2022-12-18T14:50:09.462Z,-4.2
2022-12-18T14:51:17.121Z,-4.2
2022-12-18T14:52:24.911Z,-4.2
2022-12-18T14:53:33.768Z,-4.3
2022-12-18T14:54:44.959Z,-4.3
2022-12-18T14:55:52.442Z,-4.3
2022-12-18T14:57:00.567Z,-4.4
2022-12-18T14:58:11.490Z,-4.4
2022-12-18T14:59:23.932Z,-4.4
2022-12-18T15:00:27.033Z,-4.5
2022-12-18T15:01:34.343Z,-4.5
2022-12-18T15:02:42.807Z,-4.5
2022-12-18T15:03:52.732Z,-4.5
2022-12-18T15:05:00.814Z,-4.6
2022-12-18T15:06:07.983Z,-4.6
2022-12-18T15:07:23.148Z,-4.6
2022-12-18T15:08:30.594Z,-4.7
2022-12-18T15:09:41.746Z,-4.7
2022-12-18T15:10:51.218Z,-4.7
2022-12-18T15:11:58.453Z,-4.7
2022-12-18T15:13:06.017Z,-4.8
2022-12-18T15:14:13.219Z,-4.8
2022-12-18T15:15:26.667Z,-4.8
2022-12-18T15:16:42.231Z,-4.8
2022-12-18T15:17:45.957Z,-4.9
2022-12-18T15:18:53.650Z,-4.9
2022-12-18T15:20:02.023Z,-5
2022-12-18T15:24:48.117Z,-5
2022-12-18T15:25:56.499Z,-5.1
2022-12-18T15:27:08.114Z,-5.1
2022-12-18T15:28:26.687Z,-5.2
2022-12-18T15:29:39.474Z,-5.2
2022-12-18T15:30:58.338Z,-5.2
2022-12-18T15:32:15.980Z,-5.3
2022-12-18T15:33:23.839Z,-5.3
2022-12-18T15:34:31.183Z,-5.3
2022-12-18T15:35:46.712Z,-5.4
2022-12-18T15:37:27.140Z,-5.4
2022-12-18T15:38:34.713Z,-5.5
2022-12-18T15:39:42.586Z,-5.5
2022-12-18T15:40:49.943Z,-5.5
2022-12-18T15:41:56.907Z,-5.6
2022-12-18T15:43:11.878Z,-5.6
2022-12-18T15:44:27.867Z,-5.6
2022-12-18T15:45:35.383Z,-5.6
2022-12-18T15:46:42.914Z,-5.6
2022-12-18T15:47:52.151Z,-5.7
2022-12-18T15:49:06.626Z,-5.7
2022-12-18T15:50:14.706Z,-5.8
2022-12-18T15:51:22.033Z,-5.8
2022-12-18T15:52:28.886Z,-5.9
2022-12-18T15:53:35.958Z,-5.9
2022-12-18T15:54:55.168Z,-5.9
2022-12-18T15:56:08.637Z,-5.9
2022-12-18T15:57:20.990Z,-5.9
2022-12-18T15:58:29.111Z,-5.9
2022-12-18T15:59:36.002Z,-5.9
2022-12-18T16:00:43.601Z,-6
2022-12-18T16:01:52.681Z,-6
2022-12-18T16:03:00.491Z,-6
2022-12-18T16:04:07.624Z,-6.1
2022-12-18T16:05:17.230Z,-6.1
2022-12-18T16:06:26.137Z,-6.2
2022-12-18T16:07:33.038Z,-6.2
2022-12-18T16:08:40.058Z,-6.2
2022-12-18T16:09:48.490Z,-6.2
2022-12-18T16:11:19.987Z,-6.2
2022-12-18T16:12:30.499Z,-6.2
2022-12-18T16:13:39.505Z,-6.3
2022-12-18T16:14:47.825Z,-6.3
2022-12-18T16:15:56.860Z,-6.3
2022-12-18T16:17:33.914Z,-6.3
2022-12-18T16:18:42.758Z,-6.3
2022-12-18T16:19:51.253Z,-6.3
2022-12-18T16:20:58.410Z,-6.3
2022-12-18T16:22:06.173Z,-6.3
2022-12-18T16:24:04.041Z,-6.3
2022-12-18T16:25:11.134Z,-6.3
2022-12-18T16:26:23.382Z,-6.3
2022-12-18T16:27:31.237Z,-6.3
2022-12-18T16:28:41.496Z,-6.3
2022-12-18T16:29:52.373Z,-6.3
2022-12-18T16:31:00.616Z,-6.3
2022-12-18T16:32:07.489Z,-6.3
2022-12-18T16:33:20.785Z,-6.3
2022-12-18T16:34:30.398Z,-6.3
2022-12-18T16:35:40.810Z,-6.3
2022-12-18T16:36:49.662Z,-6.3
2022-12-18T16:37:57.426Z,-6.3
2022-12-18T16:39:04.831Z,-6.4
2022-12-18T16:40:12.166Z,-6.4
2022-12-18T16:42:02.632Z,-6.4
2022-12-18T16:43:17.409Z,-6.5
2022-12-18T16:44:24.342Z,-6.5
2022-12-18T16:45:31.486Z,-6.5
2022-12-18T16:46:38.940Z,-6.5
2022-12-18T16:47:56.165Z,-6.6
2022-12-18T16:49:03.022Z,-6.6
2022-12-18T16:50:10.172Z,-6.6
2022-12-18T16:51:17.589Z,-6.7
2022-12-18T16:52:25.793Z,-6.7
2022-12-18T16:53:59.314Z,-6.7
2022-12-18T16:55:07.901Z,-6.8
2022-12-18T16:56:15.594Z,-6.8
2022-12-18T16:57:24.029Z,-6.9
2022-12-18T16:58:31.249Z,-6.9
2022-12-18T16:59:42.058Z,-7
2022-12-18T17:00:51.114Z,-7
2022-12-18T17:01:58.022Z,-6.9
2022-12-18T17:03:07.887Z,-6.9
2022-12-18T17:04:14.903Z,-6.9
2022-12-18T17:05:55.261Z,-6.9
2022-12-18T17:07:03.928Z,-6.9
2022-12-18T17:08:10.913Z,-6.9
2022-12-18T17:09:18.073Z,-6.9
2022-12-18T17:10:29.357Z,-6.9
2022-12-18T17:11:55.664Z,-6.9
2022-12-18T17:13:03.166Z,-6.9
2022-12-18T17:14:11.737Z,-6.9
2022-12-18T17:15:19.113Z,-6.9
2022-12-18T17:16:27.294Z,-6.9
2022-12-18T17:17:36.858Z,-6.8
2022-12-18T17:18:44.837Z,-6.8
2022-12-18T17:19:52.409Z,-6.7
2022-12-18T17:20:59.809Z,-6.7
2022-12-18T17:22:08.774Z,-6.6
2022-12-18T17:23:21.449Z,-6.6
2022-12-18T17:24:34.731Z,-6.6
2022-12-18T17:25:37.729Z,-6.7
2022-12-18T17:26:45.965Z,-6.6
2022-12-18T17:27:53.313Z,-6.5
2022-12-18T17:31:46.609Z,-6.5
2022-12-18T17:32:53.705Z,-6.5
2022-12-18T17:34:01.649Z,-6.4
2022-12-18T17:35:09.341Z,-6.4
2022-12-18T17:37:26.642Z,-6.4
2022-12-18T17:38:35.168Z,-6.3
2022-12-18T17:39:42.773Z,-6.3
2022-12-18T17:40:50.109Z,-6.3
2022-12-18T17:41:58.524Z,-6.3
2022-12-18T17:43:43.675Z,-6.3
2022-12-18T17:44:57.165Z,-6.4
2022-12-18T17:46:05.751Z,-6.4
2022-12-18T17:47:15.615Z,-6.5
2022-12-18T17:48:24.049Z,-6.4
2022-12-18T17:49:55.648Z,-6.4
2022-12-18T17:51:05.133Z,-6.5
2022-12-18T17:52:12.153Z,-6.4
2022-12-18T17:53:19.178Z,-6.4
2022-12-18T17:54:27.184Z,-6.4
2022-12-18T17:55:36.992Z,-6.4
2022-12-18T17:56:44.228Z,-6.4
2022-12-18T17:57:52.156Z,-6.5
2022-12-18T17:59:00.605Z,-6.4
2022-12-18T18:00:08.396Z,-6.4
2022-12-18T18:02:08.375Z,-6.4
2022-12-18T18:03:15.550Z,-6.5
2022-12-18T18:04:22.374Z,-6.5
2022-12-18T18:05:29.780Z,-6.6
2022-12-18T18:06:38.839Z,-6.7
2022-12-18T18:07:55.202Z,-6.7
2022-12-18T18:09:06.098Z,-6.7
2022-12-18T18:10:14.477Z,-6.6
2022-12-18T18:11:22.376Z,-6.6
2022-12-18T18:12:35.309Z,-6.5
2022-12-18T18:13:48.594Z,-6.7
2022-12-18T18:15:02.048Z,-6.6
2022-12-18T18:16:09.266Z,-6.5
2022-12-18T18:17:18.880Z,-6.5
2022-12-18T18:18:26.774Z,-6.5
2022-12-18T18:20:37.769Z,-6.5
2022-12-18T18:21:44.885Z,-6.6
2022-12-18T18:22:52.068Z,-6.5
2022-12-18T18:23:59.434Z,-6.5
2022-12-18T18:25:07.210Z,-6.6
2022-12-18T18:36:42.002Z,-6.6
2022-12-18T18:37:51.920Z,-6.9
2022-12-18T18:38:59.241Z,-6.9
2022-12-18T18:40:06.543Z,-7
2022-12-18T18:41:13.537Z,-6.9
2022-12-18T18:42:25.780Z,-7
2022-12-18T18:43:32.844Z,-6.9
2022-12-18T18:44:44.500Z,-6.9
2022-12-18T18:45:49.183Z,-6.8
2022-12-18T18:47:00.225Z,-6.8
2022-12-18T18:48:14.733Z,-6.8
2022-12-18T18:49:22.048Z,-6.8
2022-12-18T18:50:31.636Z,-6.7
2022-12-18T18:51:40.053Z,-6.8
2022-12-18T18:52:48.402Z,-6.8
2022-12-18T18:54:26.084Z,-6.8
2022-12-18T18:55:34.501Z,-6.7
2022-12-18T18:57:11.552Z,-6.7
2022-12-18T18:57:48.776Z,-6.6
2022-12-18T18:58:56.680Z,-6.7
2022-12-18T19:03:32.613Z,-6.7
2022-12-18T19:04:43.664Z,-6.8
2022-12-18T19:05:49.797Z,-6.8
2022-12-18T19:07:01.189Z,-6.8
2022-12-18T19:08:08.068Z,-6.9
2022-12-18T19:12:42.972Z,-6.9
2022-12-18T19:13:55.440Z,-7
2022-12-18T19:15:03.240Z,-7
2022-12-18T19:16:10.988Z,-7
2022-12-18T19:17:18.636Z,-7
2022-12-18T19:29:07.598Z,-7
2022-12-18T19:30:16.864Z,-7.1
2022-12-18T19:31:28.109Z,-7.2
2022-12-18T19:32:33.731Z,-7.2
2022-12-18T19:33:43.645Z,-7.3
2022-12-18T19:35:15.341Z,-7.3
2022-12-18T19:36:23.068Z,-7.3
2022-12-18T19:37:32.224Z,-7.3
2022-12-18T19:38:40.240Z,-7.4
2022-12-18T19:39:47.709Z,-7.4
2022-12-18T19:40:56.629Z,-7.4
2022-12-18T19:42:03.977Z,-7.4
2022-12-18T19:43:16.034Z,-7.5
2022-12-18T19:44:24.507Z,-7.4
2022-12-18T19:45:43.288Z,-7.4
2022-12-18T19:46:50.379Z,-7.4
2022-12-18T19:48:02.597Z,-7.5
2022-12-18T19:49:04.852Z,-7.4
2022-12-18T19:50:12.831Z,-7.4
2022-12-18T19:51:29.942Z,-7.4
2022-12-18T19:52:37.994Z,-7.5
2022-12-18T19:53:46.341Z,-7.5
2022-12-18T19:54:54.354Z,-7.4
2022-12-18T19:56:01.716Z,-7.4
2022-12-18T19:57:09.513Z,-7.4
2022-12-18T19:58:17.874Z,-7.5
2022-12-18T19:59:27.408Z,-7.5
2022-12-18T20:00:34.518Z,-7.5
2022-12-18T20:01:42.298Z,-7.5
2022-12-18T20:05:42.249Z,-7.5
2022-12-18T20:06:49.474Z,-7.6
2022-12-18T20:08:00.223Z,-7.5
2022-12-18T20:09:11.268Z,-7.5
2022-12-18T20:10:30.128Z,-7.5
2022-12-18T20:11:39.657Z,-7.5
2022-12-18T20:12:45.913Z,-7.6
2022-12-18T20:13:54.854Z,-7.5
2022-12-18T20:15:08.112Z,-7.5
2022-12-18T21:07:45.735Z,-7.5
2022-12-18T21:08:54.196Z,-7.8
2022-12-18T21:10:02.428Z,-7.7
2022-12-18T21:11:10.940Z,-7.7
2022-12-18T21:12:19.240Z,-7.7
2022-12-18T21:14:07.778Z,-7.7
2022-12-18T21:15:28.455Z,-7.8
2022-12-18T21:16:32.467Z,-7.8
2022-12-18T21:17:44.312Z,-7.9
2022-12-18T21:18:50.621Z,-7.9
2022-12-18T21:34:18.674Z,-7.9
2022-12-18T21:35:26.762Z,-7.8
2022-12-18T21:36:35.323Z,-7.7
2022-12-18T21:37:44.332Z,-7.7
2022-12-18T21:38:52.118Z,-7.7
2022-12-18T21:54:09.806Z,-7.7
2022-12-18T21:55:18.912Z,-8
2022-12-18T21:56:27.329Z,-8
2022-12-18T21:57:45.469Z,-7.9
2022-12-18T21:58:55.496Z,-7.9
2022-12-18T22:09:45.705Z,-7.9
2022-12-18T22:10:55.163Z,-7.9
2022-12-18T22:12:02.303Z,-7.9
2022-12-18T22:13:10.297Z,-7.9
2022-12-18T22:14:29.082Z,-7.9
2022-12-18T22:15:36.525Z,-8
2022-12-18T22:16:44.117Z,-7.9
2022-12-18T22:17:55.531Z,-7.8
2022-12-18T22:19:04.711Z,-7.8
2022-12-18T22:20:14.580Z,-7.7
2022-12-18T22:21:27.103Z,-7.7
2022-12-18T22:22:34.896Z,-7.7
2022-12-18T22:23:42.939Z,-7.7
2022-12-18T22:24:52.401Z,-7.7
2022-12-18T22:26:09.136Z,-7.7
2022-12-18T22:27:18.892Z,-7.7
2022-12-18T22:28:27.664Z,-7.7
2022-12-18T22:29:40.391Z,-7.7
2022-12-18T22:30:56.385Z,-7.7
2022-12-18T23:49:06.728Z,-7.7
2022-12-18T23:50:14.599Z,-8.4
2022-12-18T23:51:22.295Z,-8.4
2022-12-18T23:52:30.584Z,-8.5
2022-12-18T23:53:39.707Z,-8.6
